sensor_id;sensor_type;location;lat;lon;timestamp;temperature;humidity
6439;DHT22;3252;52.540;13.290;2022-07-23T00:00:34;18.20;99.90
6439;DHT22;3252;52.540;13.290;2022-07-23T00:02:36;18.10;99.90
6439;DHT22;3252;52.540;13.290;2022-07-23T00:04:38;18.10;99.90
6439;DHT22;3252;52.540;13.290;2022-07-23T00:06:40;18.10;99.90
6439;DHT22;3252;52.540;13.290;2022-07-23T00:08:42;18.10;99.90
6439;DHT22;3252;52.540;13.290;2022-07-23T00:10:44;18.00;99.90
6439;DHT22;3252;52.540;13.290;2022-07-23T00:12:47;18.00;99.90
6439;DHT22;3252;52.540;13.290;2022-07-23T00:14:49;17.90;99.90
6439;DHT22;3252;52.540;13.290;2022-07-23T00:16:51;17.90;99.90
6439;DHT22;3252;52.540;13.290;2022-07-23T00:18:53;17.90;99.90
6439;DHT22;3252;52.540;13.290;2022-07-23T00:20:55;18.00;99.90
6439;DHT22;3252;52.540;13.290;2022-07-23T00:22:57;18.00;99.90
6439;DHT22;3252;52.540;13.290;2022-07-23T00:24:59;17.90;99.90
6439;DHT22;3252;52.540;13.290;2022-07-23T00:27:01;18.00;99.90
6439;DHT22;3252;52.540;13.290;2022-07-23T00:29:05;17.90;99.90
6439;DHT22;3252;52.540;13.290;2022-07-23T00:31:07;18.00;99.90
6439;DHT22;3252;52.540;13.290;2022-07-23T00:33:09;18.00;99.90
6439;DHT22;3252;52.540;13.290;2022-07-23T00:35:11;18.10;99.90
6439;DHT22;3252;52.540;13.290;2022-07-23T00:37:13;18.00;99.90
6439;DHT22;3252;52.540;13.290;2022-07-23T00:39:15;18.10;99.90
6439;DHT22;3252;52.540;13.290;2022-07-23T00:41:17;18.10;99.90
6439;DHT22;3252;52.540;13.290;2022-07-23T00:43:20;18.20;99.90
6439;DHT22;3252;52.540;13.290;2022-07-23T00:45:24;18.10;99.90
6439;DHT22;3252;52.540;13.290;2022-07-23T00:47:26;18.10;99.90
6439;DHT22;3252;52.540;13.290;2022-07-23T00:49:31;18.10;99.90
6439;DHT22;3252;52.540;13.290;2022-07-23T00:51:33;18.20;99.90
6439;DHT22;3252;52.540;13.290;2022-07-23T00:53:35;18.20;99.90
6439;DHT22;3252;52.540;13.290;2022-07-23T00:55:38;18.10;99.90
6439;DHT22;3252;52.540;13.290;2022-07-23T00:57:41;18.10;99.90
6439;DHT22;3252;52.540;13.290;2022-07-23T00:59:43;18.10;99.90
6439;DHT22;3252;52.540;13.290;2022-07-23T01:01:48;18.10;99.90
6439;DHT22;3252;52.540;13.290;2022-07-23T01:03:50;18.10;99.90
6439;DHT22;3252;52.540;13.290;2022-07-23T01:05:53;18.10;99.90
6439;DHT22;3252;52.540;13.290;2022-07-23T01:07:55;18.10;99.90
6439;DHT22;3252;52.540;13.290;2022-07-23T01:10:01;18.10;99.90
6439;DHT22;3252;52.540;13.290;2022-07-23T01:12:05;18.00;99.90
6439;DHT22;3252;52.540;13.290;2022-07-23T01:14:09;18.00;99.90
6439;DHT22;3252;52.540;13.290;2022-07-23T01:16:11;18.00;99.90
6439;DHT22;3252;52.540;13.290;2022-07-23T01:18:15;18.00;99.90
6439;DHT22;3252;52.540;13.290;2022-07-23T01:20:18;18.00;99.90
6439;DHT22;3252;52.540;13.290;2022-07-23T01:22:21;18.00;99.90
6439;DHT22;3252;52.540;13.290;2022-07-23T01:24:24;18.00;99.90
6439;DHT22;3252;52.540;13.290;2022-07-23T01:26:37;18.00;99.90
6439;DHT22;3252;52.540;13.290;2022-07-23T01:28:39;17.90;99.90
6439;DHT22;3252;52.540;13.290;2022-07-23T01:30:42;17.90;99.90
6439;DHT22;3252;52.540;13.290;2022-07-23T01:32:44;17.80;99.90
6439;DHT22;3252;52.540;13.290;2022-07-23T01:34:47;17.80;99.90
6439;DHT22;3252;52.540;13.290;2022-07-23T01:36:49;17.70;99.90
6439;DHT22;3252;52.540;13.290;2022-07-23T01:38:51;17.60;99.90
6439;DHT22;3252;52.540;13.290;2022-07-23T01:40:56;17.60;99.90
6439;DHT22;3252;52.540;13.290;2022-07-23T01:43:04;17.60;99.90
6439;DHT22;3252;52.540;13.290;2022-07-23T01:45:08;17.60;99.90
6439;DHT22;3252;52.540;13.290;2022-07-23T01:47:12;17.50;99.90
6439;DHT22;3252;52.540;13.290;2022-07-23T01:49:14;17.50;99.90
6439;DHT22;3252;52.540;13.290;2022-07-23T01:51:35;17.50;99.90
6439;DHT22;3252;52.540;13.290;2022-07-23T01:53:44;17.50;99.90
6439;DHT22;3252;52.540;13.290;2022-07-23T01:55:46;17.50;99.90
6439;DHT22;3252;52.540;13.290;2022-07-23T01:57:49;17.30;99.90
6439;DHT22;3252;52.540;13.290;2022-07-23T01:59:55;17.40;99.90
6439;DHT22;3252;52.540;13.290;2022-07-23T02:01:57;17.40;99.90
6439;DHT22;3252;52.540;13.290;2022-07-23T02:03:59;17.40;99.90
6439;DHT22;3252;52.540;13.290;2022-07-23T02:06:01;17.40;99.90
6439;DHT22;3252;52.540;13.290;2022-07-23T02:08:04;17.30;99.90
6439;DHT22;3252;52.540;13.290;2022-07-23T02:10:09;17.40;99.90
6439;DHT22;3252;52.540;13.290;2022-07-23T02:12:12;17.30;99.90
6439;DHT22;3252;52.540;13.290;2022-07-23T02:14:15;17.40;99.90
6439;DHT22;3252;52.540;13.290;2022-07-23T02:16:17;17.40;99.90
6439;DHT22;3252;52.540;13.290;2022-07-23T02:18:20;17.30;99.90
6439;DHT22;3252;52.540;13.290;2022-07-23T02:20:22;17.40;99.90
6439;DHT22;3252;52.540;13.290;2022-07-23T02:22:24;17.40;99.90
6439;DHT22;3252;52.540;13.290;2022-07-23T02:24:26;17.40;99.90
6439;DHT22;3252;52.540;13.290;2022-07-23T02:26:28;17.40;99.90
6439;DHT22;3252;52.540;13.290;2022-07-23T02:28:31;17.40;99.90
6439;DHT22;3252;52.540;13.290;2022-07-23T02:30:34;17.30;99.90
6439;DHT22;3252;52.540;13.290;2022-07-23T02:32:37;17.40;99.90
6439;DHT22;3252;52.540;13.290;2022-07-23T02:34:40;17.40;99.90
6439;DHT22;3252;52.540;13.290;2022-07-23T02:36:42;17.40;99.90
6439;DHT22;3252;52.540;13.290;2022-07-23T02:38:44;17.40;99.90
6439;DHT22;3252;52.540;13.290;2022-07-23T02:40:46;17.30;99.90
6439;DHT22;3252;52.540;13.290;2022-07-23T02:42:48;17.30;99.90
6439;DHT22;3252;52.540;13.290;2022-07-23T02:44:50;17.30;99.90
6439;DHT22;3252;52.540;13.290;2022-07-23T02:46:54;17.30;99.90
6439;DHT22;3252;52.540;13.290;2022-07-23T02:48:56;17.40;99.90
6439;DHT22;3252;52.540;13.290;2022-07-23T02:50:58;17.30;99.90
6439;DHT22;3252;52.540;13.290;2022-07-23T02:53:06;17.30;99.90
6439;DHT22;3252;52.540;13.290;2022-07-23T02:55:09;17.30;99.90
6439;DHT22;3252;52.540;13.290;2022-07-23T02:57:11;17.30;99.90
6439;DHT22;3252;52.540;13.290;2022-07-23T02:59:13;17.30;99.90
6439;DHT22;3252;52.540;13.290;2022-07-23T03:01:15;17.30;99.90
6439;DHT22;3252;52.540;13.290;2022-07-23T03:03:21;17.30;99.90
6439;DHT22;3252;52.540;13.290;2022-07-23T03:05:23;17.30;99.90
6439;DHT22;3252;52.540;13.290;2022-07-23T03:07:25;17.30;99.90
6439;DHT22;3252;52.540;13.290;2022-07-23T03:09:28;17.20;99.90
6439;DHT22;3252;52.540;13.290;2022-07-23T03:11:30;17.20;99.90
6439;DHT22;3252;52.540;13.290;2022-07-23T03:13:32;17.20;99.90
6439;DHT22;3252;52.540;13.290;2022-07-23T03:15:34;17.20;99.90
6439;DHT22;3252;52.540;13.290;2022-07-23T03:17:36;17.20;99.90
6439;DHT22;3252;52.540;13.290;2022-07-23T03:19:39;17.20;99.90
6439;DHT22;3252;52.540;13.290;2022-07-23T03:21:43;17.30;99.90
6439;DHT22;3252;52.540;13.290;2022-07-23T03:23:46;17.20;99.90
6439;DHT22;3252;52.540;13.290;2022-07-23T03:25:48;17.20;99.90
6439;DHT22;3252;52.540;13.290;2022-07-23T03:27:50;17.20;99.90
6439;DHT22;3252;52.540;13.290;2022-07-23T03:29:55;17.20;99.90
6439;DHT22;3252;52.540;13.290;2022-07-23T03:31:57;17.10;99.90
6439;DHT22;3252;52.540;13.290;2022-07-23T03:34:00;17.10;99.90
6439;DHT22;3252;52.540;13.290;2022-07-23T03:36:03;17.20;99.90
6439;DHT22;3252;52.540;13.290;2022-07-23T03:38:07;17.20;99.90
6439;DHT22;3252;52.540;13.290;2022-07-23T03:40:10;17.10;99.90
6439;DHT22;3252;52.540;13.290;2022-07-23T03:42:13;17.10;99.90
6439;DHT22;3252;52.540;13.290;2022-07-23T03:44:15;17.10;99.90
6439;DHT22;3252;52.540;13.290;2022-07-23T03:46:17;17.20;99.90
6439;DHT22;3252;52.540;13.290;2022-07-23T03:48:19;17.20;99.90
6439;DHT22;3252;52.540;13.290;2022-07-23T03:50:21;17.20;99.90
6439;DHT22;3252;52.540;13.290;2022-07-23T03:52:25;17.20;99.90
6439;DHT22;3252;52.540;13.290;2022-07-23T03:54:27;17.20;99.90
6439;DHT22;3252;52.540;13.290;2022-07-23T03:56:29;17.20;99.90
6439;DHT22;3252;52.540;13.290;2022-07-23T03:58:31;17.30;99.90
6439;DHT22;3252;52.540;13.290;2022-07-23T04:00:33;17.30;99.90
6439;DHT22;3252;52.540;13.290;2022-07-23T04:02:35;17.30;99.90
6439;DHT22;3252;52.540;13.290;2022-07-23T04:04:37;17.30;99.90
6439;DHT22;3252;52.540;13.290;2022-07-23T04:06:40;17.30;99.90
6439;DHT22;3252;52.540;13.290;2022-07-23T04:08:44;17.30;99.90
6439;DHT22;3252;52.540;13.290;2022-07-23T04:10:46;17.30;99.90
6439;DHT22;3252;52.540;13.290;2022-07-23T04:12:48;17.30;99.90
6439;DHT22;3252;52.540;13.290;2022-07-23T04:14:50;17.30;99.90
6439;DHT22;3252;52.540;13.290;2022-07-23T04:16:52;17.30;99.90
6439;DHT22;3252;52.540;13.290;2022-07-23T04:18:55;17.30;99.90
6439;DHT22;3252;52.540;13.290;2022-07-23T04:20:57;17.20;99.90
6439;DHT22;3252;52.540;13.290;2022-07-23T04:22:59;17.20;99.90
6439;DHT22;3252;52.540;13.290;2022-07-23T04:25:04;17.10;99.90
6439;DHT22;3252;52.540;13.290;2022-07-23T04:27:06;17.00;99.90
6439;DHT22;3252;52.540;13.290;2022-07-23T04:29:08;16.90;99.90
6439;DHT22;3252;52.540;13.290;2022-07-23T04:31:11;16.80;99.90
6439;DHT22;3252;52.540;13.290;2022-07-23T04:33:14;16.70;99.90
6439;DHT22;3252;52.540;13.290;2022-07-23T04:35:16;16.70;99.90
6439;DHT22;3252;52.540;13.290;2022-07-23T04:37:18;16.50;99.90
6439;DHT22;3252;52.540;13.290;2022-07-23T04:39:21;16.50;99.90
6439;DHT22;3252;52.540;13.290;2022-07-23T04:41:24;16.50;99.90
6439;DHT22;3252;52.540;13.290;2022-07-23T04:43:26;16.50;99.90
6439;DHT22;3252;52.540;13.290;2022-07-23T04:45:29;16.50;99.90
6439;DHT22;3252;52.540;13.290;2022-07-23T04:47:31;16.40;99.90
6439;DHT22;3252;52.540;13.290;2022-07-23T04:49:34;16.40;99.90
6439;DHT22;3252;52.540;13.290;2022-07-23T04:51:36;16.40;99.90
6439;DHT22;3252;52.540;13.290;2022-07-23T04:53:38;16.40;99.90
6439;DHT22;3252;52.540;13.290;2022-07-23T04:55:40;16.40;99.90
6439;DHT22;3252;52.540;13.290;2022-07-23T04:57:43;16.30;99.90
6439;DHT22;3252;52.540;13.290;2022-07-23T04:59:45;16.20;99.90
6439;DHT22;3252;52.540;13.290;2022-07-23T05:01:48;16.20;99.90
6439;DHT22;3252;52.540;13.290;2022-07-23T05:03:50;16.20;99.90
6439;DHT22;3252;52.540;13.290;2022-07-23T05:05:52;16.20;99.90
6439;DHT22;3252;52.540;13.290;2022-07-23T05:07:55;16.10;99.90
6439;DHT22;3252;52.540;13.290;2022-07-23T05:09:57;16.00;99.90
6439;DHT22;3252;52.540;13.290;2022-07-23T05:11:59;16.00;99.90
6439;DHT22;3252;52.540;13.290;2022-07-23T05:14:02;16.00;99.90
6439;DHT22;3252;52.540;13.290;2022-07-23T05:16:05;16.00;99.90
6439;DHT22;3252;52.540;13.290;2022-07-23T05:18:07;16.10;99.90
6439;DHT22;3252;52.540;13.290;2022-07-23T05:20:09;16.00;99.90
6439;DHT22;3252;52.540;13.290;2022-07-23T05:22:11;16.00;99.90
6439;DHT22;3252;52.540;13.290;2022-07-23T05:24:13;16.00;99.90
6439;DHT22;3252;52.540;13.290;2022-07-23T05:26:15;16.00;99.90
6439;DHT22;3252;52.540;13.290;2022-07-23T05:28:17;16.10;99.90
6439;DHT22;3252;52.540;13.290;2022-07-23T05:30:21;16.00;99.90
6439;DHT22;3252;52.540;13.290;2022-07-23T05:32:26;16.00;99.90
6439;DHT22;3252;52.540;13.290;2022-07-23T05:34:39;16.10;99.90
6439;DHT22;3252;52.540;13.290;2022-07-23T05:36:41;16.10;99.90
6439;DHT22;3252;52.540;13.290;2022-07-23T05:38:44;16.10;99.90
6439;DHT22;3252;52.540;13.290;2022-07-23T05:40:46;16.10;99.90
6439;DHT22;3252;52.540;13.290;2022-07-23T05:42:48;16.00;99.90
6439;DHT22;3252;52.540;13.290;2022-07-23T05:44:50;16.00;99.90
6439;DHT22;3252;52.540;13.290;2022-07-23T05:46:54;16.00;99.90
6439;DHT22;3252;52.540;13.290;2022-07-23T05:49:00;16.00;99.90
6439;DHT22;3252;52.540;13.290;2022-07-23T05:51:22;16.00;99.90
6439;DHT22;3252;52.540;13.290;2022-07-23T05:53:25;16.00;99.90
6439;DHT22;3252;52.540;13.290;2022-07-23T05:55:41;16.00;99.90
6439;DHT22;3252;52.540;13.290;2022-07-23T05:57:43;16.00;99.90
6439;DHT22;3252;52.540;13.290;2022-07-23T05:59:45;16.00;99.90
6439;DHT22;3252;52.540;13.290;2022-07-23T06:01:47;16.00;99.90
6439;DHT22;3252;52.540;13.290;2022-07-23T06:03:52;15.90;99.90
6439;DHT22;3252;52.540;13.290;2022-07-23T06:06:04;15.90;99.90
6439;DHT22;3252;52.540;13.290;2022-07-23T06:08:06;15.90;99.90
6439;DHT22;3252;52.540;13.290;2022-07-23T06:10:09;15.80;99.90
6439;DHT22;3252;52.540;13.290;2022-07-23T06:12:11;15.80;99.90
6439;DHT22;3252;52.540;13.290;2022-07-23T06:14:13;15.80;99.90
6439;DHT22;3252;52.540;13.290;2022-07-23T06:16:30;15.80;99.90
6439;DHT22;3252;52.540;13.290;2022-07-23T06:18:33;15.80;99.90
6439;DHT22;3252;52.540;13.290;2022-07-23T06:20:36;15.90;99.90
6439;DHT22;3252;52.540;13.290;2022-07-23T06:22:41;15.90;99.90
6439;DHT22;3252;52.540;13.290;2022-07-23T06:24:43;16.00;99.90
6439;DHT22;3252;52.540;13.290;2022-07-23T06:26:45;16.00;99.90
6439;DHT22;3252;52.540;13.290;2022-07-23T06:28:51;16.00;99.90
6439;DHT22;3252;52.540;13.290;2022-07-23T06:30:52;16.10;99.90
6439;DHT22;3252;52.540;13.290;2022-07-23T06:32:54;16.10;99.90
6439;DHT22;3252;52.540;13.290;2022-07-23T06:34:56;16.10;99.90
6439;DHT22;3252;52.540;13.290;2022-07-23T06:37:00;16.10;99.90
6439;DHT22;3252;52.540;13.290;2022-07-23T06:39:02;16.10;99.90
6439;DHT22;3252;52.540;13.290;2022-07-23T06:41:07;16.10;99.90
6439;DHT22;3252;52.540;13.290;2022-07-23T06:43:10;16.10;99.90
6439;DHT22;3252;52.540;13.290;2022-07-23T06:45:12;16.10;99.90
6439;DHT22;3252;52.540;13.290;2022-07-23T06:47:14;16.20;99.90
6439;DHT22;3252;52.540;13.290;2022-07-23T06:49:16;16.10;99.90
6439;DHT22;3252;52.540;13.290;2022-07-23T06:51:18;16.10;99.90
6439;DHT22;3252;52.540;13.290;2022-07-23T06:53:25;16.10;99.90
6439;DHT22;3252;52.540;13.290;2022-07-23T06:55:27;16.20;99.90
6439;DHT22;3252;52.540;13.290;2022-07-23T06:57:29;16.20;99.90
6439;DHT22;3252;52.540;13.290;2022-07-23T06:59:32;16.20;99.90
6439;DHT22;3252;52.540;13.290;2022-07-23T07:01:39;16.20;99.90
6439;DHT22;3252;52.540;13.290;2022-07-23T07:03:42;16.20;99.90
6439;DHT22;3252;52.540;13.290;2022-07-23T07:05:44;16.20;99.90
6439;DHT22;3252;52.540;13.290;2022-07-23T07:07:46;16.20;99.90
6439;DHT22;3252;52.540;13.290;2022-07-23T07:09:50;16.30;99.90
6439;DHT22;3252;52.540;13.290;2022-07-23T07:11:52;16.30;99.90
6439;DHT22;3252;52.540;13.290;2022-07-23T07:13:54;16.40;99.90
6439;DHT22;3252;52.540;13.290;2022-07-23T07:15:56;16.40;99.90
6439;DHT22;3252;52.540;13.290;2022-07-23T07:17:58;16.40;99.90
6439;DHT22;3252;52.540;13.290;2022-07-23T07:20:04;16.40;99.90
6439;DHT22;3252;52.540;13.290;2022-07-23T07:22:07;16.50;99.90
6439;DHT22;3252;52.540;13.290;2022-07-23T07:24:09;16.50;99.90
6439;DHT22;3252;52.540;13.290;2022-07-23T07:26:12;16.60;99.90
6439;DHT22;3252;52.540;13.290;2022-07-23T07:28:14;16.60;99.90
6439;DHT22;3252;52.540;13.290;2022-07-23T07:30:16;16.60;99.90
6439;DHT22;3252;52.540;13.290;2022-07-23T07:32:20;16.70;99.90
6439;DHT22;3252;52.540;13.290;2022-07-23T07:34:23;16.70;99.90
6439;DHT22;3252;52.540;13.290;2022-07-23T07:36:25;16.70;99.90
6439;DHT22;3252;52.540;13.290;2022-07-23T07:38:27;16.70;99.90
6439;DHT22;3252;52.540;13.290;2022-07-23T07:40:29;16.80;99.90
6439;DHT22;3252;52.540;13.290;2022-07-23T07:42:33;16.80;99.90
6439;DHT22;3252;52.540;13.290;2022-07-23T07:44:35;16.80;99.90
6439;DHT22;3252;52.540;13.290;2022-07-23T07:46:37;16.80;99.90
6439;DHT22;3252;52.540;13.290;2022-07-23T07:48:39;16.80;99.90
6439;DHT22;3252;52.540;13.290;2022-07-23T07:50:40;16.80;99.90
6439;DHT22;3252;52.540;13.290;2022-07-23T07:52:43;16.80;99.90
6439;DHT22;3252;52.540;13.290;2022-07-23T07:54:44;16.80;99.90
6439;DHT22;3252;52.540;13.290;2022-07-23T07:56:46;16.90;99.90
6439;DHT22;3252;52.540;13.290;2022-07-23T07:58:50;16.90;99.90
6439;DHT22;3252;52.540;13.290;2022-07-23T08:00:52;17.00;99.90
6439;DHT22;3252;52.540;13.290;2022-07-23T08:02:55;17.10;99.90
6439;DHT22;3252;52.540;13.290;2022-07-23T08:04:56;17.10;99.90
6439;DHT22;3252;52.540;13.290;2022-07-23T08:06:58;17.20;99.90
6439;DHT22;3252;52.540;13.290;2022-07-23T08:09:00;17.20;99.90
6439;DHT22;3252;52.540;13.290;2022-07-23T08:11:02;17.30;99.90
6439;DHT22;3252;52.540;13.290;2022-07-23T08:13:04;17.30;99.90
6439;DHT22;3252;52.540;13.290;2022-07-23T08:15:09;17.30;99.90
6439;DHT22;3252;52.540;13.290;2022-07-23T08:17:11;17.20;99.90
6439;DHT22;3252;52.540;13.290;2022-07-23T08:19:13;17.30;99.90
6439;DHT22;3252;52.540;13.290;2022-07-23T08:21:15;17.40;99.90
6439;DHT22;3252;52.540;13.290;2022-07-23T08:23:17;17.40;99.90
6439;DHT22;3252;52.540;13.290;2022-07-23T08:25:22;17.50;99.90
6439;DHT22;3252;52.540;13.290;2022-07-23T08:27:24;17.50;99.90
6439;DHT22;3252;52.540;13.290;2022-07-23T08:29:26;17.60;99.90
6439;DHT22;3252;52.540;13.290;2022-07-23T08:31:29;17.70;99.90
6439;DHT22;3252;52.540;13.290;2022-07-23T08:33:33;17.80;99.90
6439;DHT22;3252;52.540;13.290;2022-07-23T08:35:37;17.80;99.90
6439;DHT22;3252;52.540;13.290;2022-07-23T08:37:39;17.80;99.90
6439;DHT22;3252;52.540;13.290;2022-07-23T08:39:41;17.90;99.90
6439;DHT22;3252;52.540;13.290;2022-07-23T08:41:43;18.00;99.90
6439;DHT22;3252;52.540;13.290;2022-07-23T08:43:46;18.00;99.90
6439;DHT22;3252;52.540;13.290;2022-07-23T08:45:50;18.10;99.90
6439;DHT22;3252;52.540;13.290;2022-07-23T08:47:55;18.20;99.90
6439;DHT22;3252;52.540;13.290;2022-07-23T08:49:59;18.20;99.90
6439;DHT22;3252;52.540;13.290;2022-07-23T08:52:01;18.30;99.90
6439;DHT22;3252;52.540;13.290;2022-07-23T08:54:03;18.30;99.90
6439;DHT22;3252;52.540;13.290;2022-07-23T08:56:06;18.40;99.90
6439;DHT22;3252;52.540;13.290;2022-07-23T08:58:08;18.50;99.90
6439;DHT22;3252;52.540;13.290;2022-07-23T09:00:11;18.50;99.90
6439;DHT22;3252;52.540;13.290;2022-07-23T09:02:13;18.60;99.90
6439;DHT22;3252;52.540;13.290;2022-07-23T09:04:17;18.70;99.90
6439;DHT22;3252;52.540;13.290;2022-07-23T09:06:19;18.70;99.90
6439;DHT22;3252;52.540;13.290;2022-07-23T09:08:23;18.90;99.90
6439;DHT22;3252;52.540;13.290;2022-07-23T09:10:26;19.00;99.90
6439;DHT22;3252;52.540;13.290;2022-07-23T09:12:28;19.10;99.90
6439;DHT22;3252;52.540;13.290;2022-07-23T09:14:37;19.10;99.90
6439;DHT22;3252;52.540;13.290;2022-07-23T09:16:40;19.20;99.90
6439;DHT22;3252;52.540;13.290;2022-07-23T09:18:44;19.20;99.90
6439;DHT22;3252;52.540;13.290;2022-07-23T09:20:48;19.30;99.90
6439;DHT22;3252;52.540;13.290;2022-07-23T09:22:50;19.60;99.90
6439;DHT22;3252;52.540;13.290;2022-07-23T09:25:09;20.00;99.90
6439;DHT22;3252;52.540;13.290;2022-07-23T09:27:11;20.00;99.90
6439;DHT22;3252;52.540;13.290;2022-07-23T09:29:17;20.20;99.90
6439;DHT22;3252;52.540;13.290;2022-07-23T09:31:19;20.30;99.90
6439;DHT22;3252;52.540;13.290;2022-07-23T09:33:21;20.40;99.90
6439;DHT22;3252;52.540;13.290;2022-07-23T09:35:43;20.40;99.90
6439;DHT22;3252;52.540;13.290;2022-07-23T09:38:00;20.40;99.90
6439;DHT22;3252;52.540;13.290;2022-07-23T09:40:05;20.50;99.90
6439;DHT22;3252;52.540;13.290;2022-07-23T09:42:14;20.50;99.90
6439;DHT22;3252;52.540;13.290;2022-07-23T09:44:18;20.50;99.90
6439;DHT22;3252;52.540;13.290;2022-07-23T09:46:21;20.60;99.90
6439;DHT22;3252;52.540;13.290;2022-07-23T09:48:23;20.60;99.90
6439;DHT22;3252;52.540;13.290;2022-07-23T09:50:25;20.60;99.90
6439;DHT22;3252;52.540;13.290;2022-07-23T09:52:28;20.70;99.90
6439;DHT22;3252;52.540;13.290;2022-07-23T09:54:33;20.60;99.90
6439;DHT22;3252;52.540;13.290;2022-07-23T09:56:36;20.60;99.90
6439;DHT22;3252;52.540;13.290;2022-07-23T09:58:40;20.50;99.90
6439;DHT22;3252;52.540;13.290;2022-07-23T10:00:51;20.60;99.90
6439;DHT22;3252;52.540;13.290;2022-07-23T10:02:54;20.70;99.90
6439;DHT22;3252;52.540;13.290;2022-07-23T10:05:03;20.80;99.90
6439;DHT22;3252;52.540;13.290;2022-07-23T10:07:26;20.90;99.90
6439;DHT22;3252;52.540;13.290;2022-07-23T10:09:51;20.90;99.90
6439;DHT22;3252;52.540;13.290;2022-07-23T10:12:13;20.90;99.90
6439;DHT22;3252;52.540;13.290;2022-07-23T10:14:33;20.80;99.90
6439;DHT22;3252;52.540;13.290;2022-07-23T10:16:38;20.80;99.90
6439;DHT22;3252;52.540;13.290;2022-07-23T10:18:41;20.70;99.90
6439;DHT22;3252;52.540;13.290;2022-07-23T10:20:43;20.70;99.90
6439;DHT22;3252;52.540;13.290;2022-07-23T10:22:53;20.70;99.90
6439;DHT22;3252;52.540;13.290;2022-07-23T10:25:10;20.70;99.90
6439;DHT22;3252;52.540;13.290;2022-07-23T10:27:30;20.80;99.90
6439;DHT22;3252;52.540;13.290;2022-07-23T10:29:42;20.80;99.90
6439;DHT22;3252;52.540;13.290;2022-07-23T10:31:54;20.70;99.90
6439;DHT22;3252;52.540;13.290;2022-07-23T10:34:07;20.70;99.90
6439;DHT22;3252;52.540;13.290;2022-07-23T10:36:19;20.80;99.90
6439;DHT22;3252;52.540;13.290;2022-07-23T10:38:25;20.80;99.50
6439;DHT22;3252;52.540;13.290;2022-07-23T10:40:30;21.00;99.90
6439;DHT22;3252;52.540;13.290;2022-07-23T10:42:33;21.10;98.40
6439;DHT22;3252;52.540;13.290;2022-07-23T10:44:41;21.20;99.90
6439;DHT22;3252;52.540;13.290;2022-07-23T10:46:55;21.30;98.70
6439;DHT22;3252;52.540;13.290;2022-07-23T10:49:26;21.40;99.30
6439;DHT22;3252;52.540;13.290;2022-07-23T10:51:29;21.50;97.80
6439;DHT22;3252;52.540;13.290;2022-07-23T10:53:53;21.60;96.80
6439;DHT22;3252;52.540;13.290;2022-07-23T10:55:56;21.70;97.40
6439;DHT22;3252;52.540;13.290;2022-07-23T10:57:59;21.80;97.20
6439;DHT22;3252;52.540;13.290;2022-07-23T11:00:21;21.90;96.10
6439;DHT22;3252;52.540;13.290;2022-07-23T11:02:23;21.90;97.70
6439;DHT22;3252;52.540;13.290;2022-07-23T11:04:47;22.00;95.90
6439;DHT22;3252;52.540;13.290;2022-07-23T11:07:08;22.10;96.20
6439;DHT22;3252;52.540;13.290;2022-07-23T11:09:24;22.20;95.60
6439;DHT22;3252;52.540;13.290;2022-07-23T11:11:28;22.30;95.00
6439;DHT22;3252;52.540;13.290;2022-07-23T11:13:49;22.30;95.90
6439;DHT22;3252;52.540;13.290;2022-07-23T11:16:04;22.30;94.70
6439;DHT22;3252;52.540;13.290;2022-07-23T11:18:07;22.30;94.50
6439;DHT22;3252;52.540;13.290;2022-07-23T11:20:20;22.30;95.10
6439;DHT22;3252;52.540;13.290;2022-07-23T11:22:34;22.40;94.50
6439;DHT22;3252;52.540;13.290;2022-07-23T11:24:50;22.40;93.50
6439;DHT22;3252;52.540;13.290;2022-07-23T11:26:59;22.50;94.80
6439;DHT22;3252;52.540;13.290;2022-07-23T11:29:48;22.40;94.00
6439;DHT22;3252;52.540;13.290;2022-07-23T11:31:53;22.40;94.60
6439;DHT22;3252;52.540;13.290;2022-07-23T11:36:48;22.60;95.70
6439;DHT22;3252;52.540;13.290;2022-07-23T11:38:51;22.60;92.70
6439;DHT22;3252;52.540;13.290;2022-07-23T11:40:55;22.70;93.30
6439;DHT22;3252;52.540;13.290;2022-07-23T11:43:02;22.70;92.70
6439;DHT22;3252;52.540;13.290;2022-07-23T11:45:06;22.70;94.30
6439;DHT22;3252;52.540;13.290;2022-07-23T11:47:10;22.70;94.70
6439;DHT22;3252;52.540;13.290;2022-07-23T11:49:12;22.60;94.40
6439;DHT22;3252;52.540;13.290;2022-07-23T11:51:25;22.60;92.30
6439;DHT22;3252;52.540;13.290;2022-07-23T11:53:28;22.60;92.90
6439;DHT22;3252;52.540;13.290;2022-07-23T11:55:31;22.60;93.50
6439;DHT22;3252;52.540;13.290;2022-07-23T11:57:33;22.60;93.00
6439;DHT22;3252;52.540;13.290;2022-07-23T11:59:38;22.70;92.20
6439;DHT22;3252;52.540;13.290;2022-07-23T12:01:56;22.70;92.40
6439;DHT22;3252;52.540;13.290;2022-07-23T12:03:58;22.80;92.30
6439;DHT22;3252;52.540;13.290;2022-07-23T12:06:00;22.80;92.70
6439;DHT22;3252;52.540;13.290;2022-07-23T12:08:04;22.90;93.10
6439;DHT22;3252;52.540;13.290;2022-07-23T12:10:11;22.90;90.90
6439;DHT22;3252;52.540;13.290;2022-07-23T12:12:13;22.90;91.80
6439;DHT22;3252;52.540;13.290;2022-07-23T12:14:15;22.90;91.40
6439;DHT22;3252;52.540;13.290;2022-07-23T12:16:18;23.00;92.30
6439;DHT22;3252;52.540;13.290;2022-07-23T12:18:21;23.00;91.20
6439;DHT22;3252;52.540;13.290;2022-07-23T12:20:25;23.00;90.70
6439;DHT22;3252;52.540;13.290;2022-07-23T12:22:34;23.10;89.10
6439;DHT22;3252;52.540;13.290;2022-07-23T12:24:54;23.00;91.50
6439;DHT22;3252;52.540;13.290;2022-07-23T12:27:09;23.00;90.50
6439;DHT22;3252;52.540;13.290;2022-07-23T12:29:11;22.90;90.30
6439;DHT22;3252;52.540;13.290;2022-07-23T12:31:13;22.90;88.50
6439;DHT22;3252;52.540;13.290;2022-07-23T12:33:29;22.80;90.60
6439;DHT22;3252;52.540;13.290;2022-07-23T12:35:34;22.90;91.00
6439;DHT22;3252;52.540;13.290;2022-07-23T12:37:39;22.90;90.20
6439;DHT22;3252;52.540;13.290;2022-07-23T12:39:41;23.00;90.40
6439;DHT22;3252;52.540;13.290;2022-07-23T12:41:53;23.10;90.60
6439;DHT22;3252;52.540;13.290;2022-07-23T12:43:55;23.20;91.60
6439;DHT22;3252;52.540;13.290;2022-07-23T12:46:03;23.20;90.20
6439;DHT22;3252;52.540;13.290;2022-07-23T12:48:06;23.30;90.10
6439;DHT22;3252;52.540;13.290;2022-07-23T12:50:42;23.30;89.00
6439;DHT22;3252;52.540;13.290;2022-07-23T12:52:44;23.30;87.30
6439;DHT22;3252;52.540;13.290;2022-07-23T12:54:46;23.30;88.00
6439;DHT22;3252;52.540;13.290;2022-07-23T12:56:48;23.30;90.70
6439;DHT22;3252;52.540;13.290;2022-07-23T12:58:52;23.40;90.00
6439;DHT22;3252;52.540;13.290;2022-07-23T13:01:01;23.50;90.60
6439;DHT22;3252;52.540;13.290;2022-07-23T13:03:04;23.60;89.70
6439;DHT22;3252;52.540;13.290;2022-07-23T13:05:06;23.60;88.40
6439;DHT22;3252;52.540;13.290;2022-07-23T13:07:09;23.70;89.90
6439;DHT22;3252;52.540;13.290;2022-07-23T13:09:14;23.60;85.80
6439;DHT22;3252;52.540;13.290;2022-07-23T13:11:16;23.70;86.40
6439;DHT22;3252;52.540;13.290;2022-07-23T13:13:21;23.80;86.60
6439;DHT22;3252;52.540;13.290;2022-07-23T13:15:23;23.80;88.00
6439;DHT22;3252;52.540;13.290;2022-07-23T13:17:25;23.90;87.10
6439;DHT22;3252;52.540;13.290;2022-07-23T13:19:27;23.80;81.20
6439;DHT22;3252;52.540;13.290;2022-07-23T13:21:29;23.90;83.30